Time;durP1;ratioP1;P1;durP2;ratioP2;P2;SDS_P1;SDS_P2;PMS_P1;PMS_P2;Temp;Humidity;BMP_temperature;BMP_pressure;BME280_temperature;BME280_humidity;BME280_pressure;Samples;Min_cycle;Max_cycle;Signal;HPM_P1;HPM_P2
2021/06/30 00:00:35;;;;;;;;;10.75;9.00;;;;;;;;5026499;28;45659;-75
2021/06/30 00:03:01;;;;;;;;;13.00;11.00;;;;;;;;5023724;28;45562;-75
2021/06/30 00:05:26;;;;;;;;;13.75;9.75;;;;;;;;5023654;28;45563;-74
2021/06/30 00:07:52;;;;;;;;;14.25;11.00;;;;;;;;5027050;28;45527;-74
2021/06/30 00:10:17;;;;;;;;;17.75;11.25;;;;;;;;5024457;28;45557;-75
2021/06/30 00:12:42;;;;;;;;;16.25;11.25;;;;;;;;5022408;28;47614;-76
2021/06/30 00:15:10;;;;;;;;;17.75;12.00;;;;;;;;5025228;28;45522;-75
2021/06/30 00:17:35;;;;;;;;;14.50;14.00;;;;;;;;5021450;28;46111;-75
2021/06/30 00:20:01;;;;;;;;;11.25;11.25;;;;;;;;5075107;22;45391;-75
2021/06/30 00:22:26;;;;;;;;;12.25;10.00;;;;;;;;4969149;28;45709;-75
2021/06/30 00:24:51;;;;;;;;;14.33;10.67;;;;;;;;4974527;28;45694;-75
2021/06/30 00:27:16;;;;;;;;;13.00;11.75;;;;;;;;4972666;28;46235;-75
2021/06/30 00:29:42;;;;;;;;;12.25;11.00;;;;;;;;4967005;28;45871;-75
2021/06/30 00:32:07;;;;;;;;;10.00;10.00;;;;;;;;4971099;28;45722;-75
2021/06/30 00:34:32;;;;;;;;;14.25;11.00;;;;;;;;4972054;28;45320;-75
2021/06/30 00:36:57;;;;;;;;;13.75;11.50;;;;;;;;4963966;28;45582;-75
2021/06/30 00:39:23;;;;;;;;;11.25;10.00;;;;;;;;4967803;28;48453;-76
2021/06/30 00:41:49;;;;;;;;;14.00;10.75;;;;;;;;5017779;22;45099;-75
2021/06/30 00:44:14;;;;;;;;;14.00;10.75;;;;;;;;5010432;28;45506;-74
2021/06/30 00:46:39;;;;;;;;;9.75;9.25;;;;;;;;5012646;28;46062;-75
2021/06/30 00:49:06;;;;;;;;;7.75;7.75;;;;;;;;5005271;28;45600;-76
2021/06/30 00:51:31;;;;;;;;;11.50;8.75;;;;;;;;5003743;28;45586;-75
2021/06/30 00:53:56;;;;;;;;;10.75;10.00;;;;;;;;5012884;28;45507;-75
2021/06/30 00:56:24;;;;;;;;;11.75;8.00;;;;;;;;4989763;28;45976;-75
2021/06/30 01:01:25;;;;;;;;;9.75;8.00;;;;;;;;4203844;26;46201;-74
2021/06/30 01:06:26;;;;;;;;;8.00;8.00;;;;;;;;5370087;22;45913;-75
2021/06/30 01:08:51;;;;;;;;;6.75;5.00;;;;;;;;4990641;28;45610;-75
2021/06/30 01:11:16;;;;;;;;;7.50;6.25;;;;;;;;4973745;28;45742;-76
2021/06/30 01:13:42;;;;;;;;;6.00;6.00;;;;;;;;4996765;28;45733;-76
2021/06/30 01:16:07;;;;;;;;;8.00;5.00;;;;;;;;4988419;28;45529;-74
2021/06/30 01:18:33;;;;;;;;;6.75;5.25;;;;;;;;5007838;28;45435;-75
2021/06/30 01:20:59;;;;;;;;;7.00;6.00;;;;;;;;4992222;28;45591;-75
2021/06/30 01:23:25;;;;;;;;;11.25;5.50;;;;;;;;4985458;28;45519;-75
2021/06/30 01:25:50;;;;;;;;;9.00;6.25;;;;;;;;4974486;28;48546;-77
2021/06/30 01:28:16;;;;;;;;;6.25;5.50;;;;;;;;4986213;28;46400;-75
2021/06/30 01:30:42;;;;;;;;;8.00;5.50;;;;;;;;4983174;28;45599;-76
2021/06/30 01:33:08;;;;;;;;;7.00;5.75;;;;;;;;4990284;28;46600;-75
2021/06/30 01:35:34;;;;;;;;;7.00;4.00;;;;;;;;4988845;28;46307;-75
2021/06/30 01:37:59;;;;;;;;;7.00;5.00;;;;;;;;4994264;28;49436;-75
2021/06/30 01:40:25;;;;;;;;;7.75;4.00;;;;;;;;4990865;28;45518;-75
2021/06/30 01:42:51;;;;;;;;;8.67;6.00;;;;;;;;4979462;28;46251;-75
2021/06/30 01:45:17;;;;;;;;;5.00;4.00;;;;;;;;4995915;28;45978;-75
2021/06/30 01:47:42;;;;;;;;;9.50;6.00;;;;;;;;4976476;28;45770;-75
2021/06/30 01:50:08;;;;;;;;;5.75;5.50;;;;;;;;4985695;28;45482;-74
2021/06/30 01:52:34;;;;;;;;;7.50;7.25;;;;;;;;4982379;28;45682;-75
2021/06/30 01:54:59;;;;;;;;;5.25;4.25;;;;;;;;4988516;28;45498;-74
2021/06/30 01:57:25;;;;;;;;;6.75;4.25;;;;;;;;4993209;28;46117;-75
2021/06/30 01:59:50;;;;;;;;;4.50;4.50;;;;;;;;4968843;28;45466;-75
2021/06/30 02:02:16;;;;;;;;;6.00;6.00;;;;;;;;4984715;28;46269;-76
2021/06/30 02:04:41;;;;;;;;;5.50;5.00;;;;;;;;4982774;28;45618;-75
2021/06/30 02:07:07;;;;;;;;;7.25;5.25;;;;;;;;5001493;28;45608;-76
2021/06/30 02:09:33;;;;;;;;;5.00;5.00;;;;;;;;5014023;28;45521;-74
2021/06/30 02:11:58;;;;;;;;;6.75;5.50;;;;;;;;5010785;28;45494;-75
2021/06/30 02:14:24;;;;;;;;;5.00;5.00;;;;;;;;4997673;28;45585;-75
2021/06/30 02:16:49;;;;;;;;;6.50;4.00;;;;;;;;5002854;28;45599;-75
2021/06/30 02:19:14;;;;;;;;;5.75;4.00;;;;;;;;5000485;28;45652;-75
2021/06/30 02:21:39;;;;;;;;;5.00;5.00;;;;;;;;5001189;28;45266;-76
2021/06/30 02:24:05;;;;;;;;;6.25;6.00;;;;;;;;5002508;28;45636;-75
2021/06/30 02:26:31;;;;;;;;;5.25;5.00;;;;;;;;5006749;28;49041;-76
2021/06/30 02:28:56;;;;;;;;;7.75;5.00;;;;;;;;5013632;28;45670;-74
2021/06/30 02:31:22;;;;;;;;;6.75;6.00;;;;;;;;5010377;28;45754;-74
2021/06/30 02:33:47;;;;;;;;;13.00;6.00;;;;;;;;5115274;22;45630;-75
2021/06/30 02:36:13;;;;;;;;;9.33;5.67;;;;;;;;5018212;28;45510;-74
2021/06/30 02:38:38;;;;;;;;;9.75;6.00;;;;;;;;5007602;28;45694;-74
2021/06/30 02:41:04;;;;;;;;;10.50;7.00;;;;;;;;5021748;28;45601;-74
2021/06/30 02:43:29;;;;;;;;;6.75;6.75;;;;;;;;5015079;28;48776;-74
2021/06/30 02:45:54;;;;;;;;;6.75;6.00;;;;;;;;5009443;28;45694;-76
2021/06/30 02:48:20;;;;;;;;;9.33;7.00;;;;;;;;5024990;28;45471;-76
2021/06/30 02:50:45;;;;;;;;;8.25;7.00;;;;;;;;5004866;28;45613;-75
2021/06/30 02:53:11;;;;;;;;;9.25;7.25;;;;;;;;5010434;28;46193;-75
2021/06/30 02:55:36;;;;;;;;;8.33;8.00;;;;;;;;5011141;28;45431;-74
2021/06/30 02:58:01;;;;;;;;;9.25;7.00;;;;;;;;5020192;28;45802;-78
2021/06/30 03:00:27;;;;;;;;;9.67;7.00;;;;;;;;5011263;28;45485;-78
2021/06/30 03:02:52;;;;;;;;;9.25;7.00;;;;;;;;5027334;28;46115;-78
2021/06/30 03:05:18;;;;;;;;;7.50;7.50;;;;;;;;5018173;28;45451;-80
2021/06/30 03:07:43;;;;;;;;;9.00;6.00;;;;;;;;5015355;28;46314;-78
2021/06/30 03:10:10;;;;;;;;;9.00;7.25;;;;;;;;5020895;28;45549;-78
2021/06/30 03:12:35;;;;;;;;;7.50;6.50;;;;;;;;5013253;28;55047;-79
2021/06/30 03:15:01;;;;;;;;;10.25;8.00;;;;;;;;5012002;28;46144;-79
2021/06/30 03:17:26;;;;;;;;;8.00;6.00;;;;;;;;5009783;28;45629;-78
2021/06/30 03:19:51;;;;;;;;;7.50;5.50;;;;;;;;5018653;28;45547;-79
2021/06/30 03:22:17;;;;;;;;;12.75;7.50;;;;;;;;5008770;28;46103;-78
2021/06/30 03:24:42;;;;;;;;;8.75;7.75;;;;;;;;5030712;28;45331;-78
2021/06/30 03:27:07;;;;;;;;;8.00;7.00;;;;;;;;5013691;28;45536;-78
2021/06/30 03:29:33;;;;;;;;;16.00;12.00;;;;;;;;5006710;28;46201;-78
2021/06/30 03:31:58;;;;;;;;;10.67;9.33;;;;;;;;5008478;28;46108;-78
2021/06/30 03:34:23;;;;;;;;;8.75;7.50;;;;;;;;5031027;28;46242;-78
2021/06/30 03:36:49;;;;;;;;;14.00;10.67;;;;;;;;5008931;28;45573;-79
2021/06/30 03:39:14;;;;;;;;;12.25;7.50;;;;;;;;5008805;28;45578;-78
2021/06/30 03:41:39;;;;;;;;;15.25;9.75;;;;;;;;5010516;28;45997;-79
2021/06/30 03:44:05;;;;;;;;;13.00;11.25;;;;;;;;5014123;28;45608;-78
2021/06/30 03:46:30;;;;;;;;;15.50;10.00;;;;;;;;5011946;28;45537;-78
2021/06/30 03:48:55;;;;;;;;;12.00;9.00;;;;;;;;5010764;28;45889;-78
2021/06/30 03:51:21;;;;;;;;;10.00;8.33;;;;;;;;5017664;28;45613;-78
2021/06/30 03:53:46;;;;;;;;;11.00;11.00;;;;;;;;5016284;28;48599;-78
2021/06/30 03:56:11;;;;;;;;;15.00;11.75;;;;;;;;5015256;28;45594;-79
2021/06/30 03:58:36;;;;;;;;;14.75;11.50;;;;;;;;5025447;28;45446;-78
2021/06/30 04:01:01;;;;;;;;;11.33;11.33;;;;;;;;5004786;28;45594;-78
2021/06/30 04:03:27;;;;;;;;;14.75;12.00;;;;;;;;5012318;28;45860;-78
2021/06/30 04:05:52;;;;;;;;;15.33;10.33;;;;;;;;5014565;28;46429;-78
2021/06/30 04:08:17;;;;;;;;;16.00;10.75;;;;;;;;5009154;28;46575;-78
2021/06/30 04:10:43;;;;;;;;;14.00;13.00;;;;;;;;5007364;28;48377;-78
2021/06/30 04:13:09;;;;;;;;;14.50;13.00;;;;;;;;5007697;28;45580;-78
2021/06/30 04:15:34;;;;;;;;;14.50;10.00;;;;;;;;5012233;28;45789;-78
2021/06/30 04:18:02;;;;;;;;;17.75;13.50;;;;;;;;5004524;28;45608;-78
2021/06/30 04:20:27;;;;;;;;;20.75;15.50;;;;;;;;5013145;28;46546;-78
2021/06/30 04:22:53;;;;;;;;;18.00;12.75;;;;;;;;5015133;28;46173;-78
2021/06/30 04:25:18;;;;;;;;;17.00;13.75;;;;;;;;5004724;28;45964;-78
2021/06/30 04:27:43;;;;;;;;;21.75;16.75;;;;;;;;5012651;28;45446;-78
2021/06/30 04:30:10;;;;;;;;;16.75;15.00;;;;;;;;5026290;28;48272;-78
2021/06/30 04:32:36;;;;;;;;;18.75;14.00;;;;;;;;5005108;28;46179;-78
2021/06/30 04:35:01;;;;;;;;;20.00;14.00;;;;;;;;5009788;28;46692;-78
2021/06/30 04:37:26;;;;;;;;;22.25;15.50;;;;;;;;5013608;28;45530;-80
2021/06/30 04:39:51;;;;;;;;;18.33;14.00;;;;;;;;5015675;28;45993;-78
2021/06/30 04:42:18;;;;;;;;;16.00;14.00;;;;;;;;5014482;28;45528;-78
2021/06/30 04:44:44;;;;;;;;;13.00;13.00;;;;;;;;5005250;28;45584;-79
2021/06/30 04:47:09;;;;;;;;;14.00;10.00;;;;;;;;5014244;28;45563;-78
2021/06/30 04:49:34;;;;;;;;;16.00;12.75;;;;;;;;5012855;28;45508;-78
2021/06/30 04:51:59;;;;;;;;;15.50;11.25;;;;;;;;5006959;28;45423;-79
2021/06/30 04:54:25;;;;;;;;;16.00;12.00;;;;;;;;5010074;28;45541;-79
2021/06/30 04:56:50;;;;;;;;;14.50;10.00;;;;;;;;5017920;28;45523;-78
2021/06/30 04:59:17;;;;;;;;;13.00;11.25;;;;;;;;5011985;28;45539;-78
2021/06/30 05:01:42;;;;;;;;;13.50;10.25;;;;;;;;5022583;28;45969;-78
2021/06/30 05:04:08;;;;;;;;;15.50;9.75;;;;;;;;5003153;28;50687;-78
2021/06/30 05:06:34;;;;;;;;;11.75;10.00;;;;;;;;5007792;28;45685;-78
2021/06/30 05:09:00;;;;;;;;;12.50;11.50;;;;;;;;5005143;28;47235;-78
2021/06/30 05:11:25;;;;;;;;;13.25;10.50;;;;;;;;5011145;28;45586;-78
2021/06/30 05:13:50;;;;;;;;;9.00;9.00;;;;;;;;5012927;28;45534;-78
2021/06/30 05:16:15;;;;;;;;;12.25;9.00;;;;;;;;5016919;28;45592;-78
2021/06/30 05:18:40;;;;;;;;;11.00;8.67;;;;;;;;5014060;28;47767;-78
2021/06/30 05:21:06;;;;;;;;;12.25;9.00;;;;;;;;5023113;28;47791;-78
2021/06/30 05:23:31;;;;;;;;;11.00;7.75;;;;;;;;5015303;28;45725;-78
2021/06/30 05:25:58;;;;;;;;;12.33;8.00;;;;;;;;5014054;28;45465;-78
2021/06/30 05:28:23;;;;;;;;;11.75;9.00;;;;;;;;5012358;28;52583;-78
2021/06/30 05:30:49;;;;;;;;;9.50;8.75;;;;;;;;5011851;28;45637;-78
2021/06/30 05:33:14;;;;;;;;;8.50;8.25;;;;;;;;5034234;28;46198;-79
2021/06/30 05:35:40;;;;;;;;;8.00;7.25;;;;;;;;5012164;28;45531;-79
2021/06/30 05:38:05;;;;;;;;;11.25;7.00;;;;;;;;5008845;28;47042;-80
2021/06/30 05:40:30;;;;;;;;;12.33;7.00;;;;;;;;5009477;28;55762;-78
2021/06/30 05:42:55;;;;;;;;;9.75;7.75;;;;;;;;5005932;28;45486;-80
2021/06/30 05:45:21;;;;;;;;;5.50;5.50;;;;;;;;5011655;28;45580;-78
2021/06/30 05:47:46;;;;;;;;;9.25;7.50;;;;;;;;5010327;28;61205;-79
2021/06/30 05:50:12;;;;;;;;;6.75;6.00;;;;;;;;5022204;28;46144;-79
2021/06/30 05:52:38;;;;;;;;;7.00;6.00;;;;;;;;5017558;28;45648;-78
2021/06/30 05:55:04;;;;;;;;;12.25;7.50;;;;;;;;5007787;28;45654;-78
2021/06/30 05:57:29;;;;;;;;;9.50;6.00;;;;;;;;5011000;28;47497;-75
2021/06/30 05:59:55;;;;;;;;;11.00;6.75;;;;;;;;5028335;28;45517;-76
2021/06/30 06:02:20;;;;;;;;;7.25;5.50;;;;;;;;5023558;28;45545;-76
2021/06/30 06:04:45;;;;;;;;;12.50;7.25;;;;;;;;5011640;28;46617;-75
2021/06/30 06:07:10;;;;;;;;;8.50;5.75;;;;;;;;5017502;28;46033;-76
2021/06/30 06:09:35;;;;;;;;;7.00;7.00;;;;;;;;5023385;28;45359;-76
2021/06/30 06:12:01;;;;;;;;;5.67;4.67;;;;;;;;5013084;28;45494;-75
2021/06/30 06:14:26;;;;;;;;;8.00;5.25;;;;;;;;5021104;28;46450;-75
2021/06/30 06:16:51;;;;;;;;;8.33;6.00;;;;;;;;5011486;28;47033;-75
2021/06/30 06:19:17;;;;;;;;;6.50;5.25;;;;;;;;5015121;28;45514;-75
2021/06/30 06:21:43;;;;;;;;;8.25;4.50;;;;;;;;5019061;28;45549;-75
2021/06/30 06:24:08;;;;;;;;;6.00;5.00;;;;;;;;5016916;28;45407;-75
2021/06/30 06:26:34;;;;;;;;;6.50;5.00;;;;;;;;5013544;28;45749;-75
2021/06/30 06:28:59;;;;;;;;;8.50;5.25;;;;;;;;5016390;28;45505;-75
2021/06/30 06:31:27;;;;;;;;;5.50;5.00;;;;;;;;5016006;28;45626;-76
2021/06/30 06:33:52;;;;;;;;;7.50;5.00;;;;;;;;5066101;22;46390;-76
2021/06/30 06:36:18;;;;;;;;;5.00;5.00;;;;;;;;5021850;28;46403;-75
2021/06/30 06:38:45;;;;;;;;;9.00;8.00;;;;;;;;5007794;28;46037;-75
2021/06/30 06:41:10;;;;;;;;;7.75;5.25;;;;;;;;5011666;28;45409;-77
2021/06/30 06:43:36;;;;;;;;;5.00;4.25;;;;;;;;5012568;28;45460;-75
2021/06/30 06:46:01;;;;;;;;;5.00;5.00;;;;;;;;5022318;28;48390;-75
2021/06/30 06:51:02;;;;;;;;;10.50;6.00;;;;;;;;5576569;22;46557;-75
2021/06/30 06:53:27;;;;;;;;;5.25;5.25;;;;;;;;4992906;28;45569;-76
2021/06/30 06:55:53;;;;;;;;;7.00;6.00;;;;;;;;4991311;28;45817;-75
2021/06/30 06:58:19;;;;;;;;;6.75;5.50;;;;;;;;4991364;28;45950;-75
2021/06/30 07:00:44;;;;;;;;;12.00;6.00;;;;;;;;4993551;28;46922;-75
2021/06/30 07:03:09;;;;;;;;;7.00;5.75;;;;;;;;4991761;28;46848;-76
2021/06/30 07:05:35;;;;;;;;;10.00;7.50;;;;;;;;4987625;28;55686;-76
2021/06/30 07:08:00;;;;;;;;;8.33;7.00;;;;;;;;4995605;28;45741;-76
2021/06/30 07:10:25;;;;;;;;;8.75;6.50;;;;;;;;4990469;28;45848;-76
2021/06/30 07:12:50;;;;;;;;;8.50;7.00;;;;;;;;4992061;28;45534;-75
2021/06/30 07:15:16;;;;;;;;;7.00;5.00;;;;;;;;4997059;28;52605;-75
2021/06/30 07:17:41;;;;;;;;;7.00;6.25;;;;;;;;4989427;28;45582;-75
2021/06/30 07:20:07;;;;;;;;;10.75;6.00;;;;;;;;4974635;28;53326;-76
2021/06/30 07:22:32;;;;;;;;;8.00;7.00;;;;;;;;4996039;28;45446;-75
2021/06/30 07:24:57;;;;;;;;;8.25;5.50;;;;;;;;4991679;28;45467;-75
2021/06/30 07:27:23;;;;;;;;;6.50;6.00;;;;;;;;4997098;28;45570;-75
2021/06/30 07:29:48;;;;;;;;;7.00;7.00;;;;;;;;4981037;28;46069;-75
2021/06/30 07:32:13;;;;;;;;;7.50;6.00;;;;;;;;4972672;28;45618;-75
2021/06/30 07:34:38;;;;;;;;;7.75;6.75;;;;;;;;4993465;28;46186;-75
2021/06/30 07:37:04;;;;;;;;;7.67;7.00;;;;;;;;5001767;28;45591;-75
2021/06/30 07:39:29;;;;;;;;;8.33;6.00;;;;;;;;5004542;28;45924;-75
2021/06/30 07:41:55;;;;;;;;;9.75;7.25;;;;;;;;5006450;28;45664;-76
2021/06/30 07:44:21;;;;;;;;;10.50;7.25;;;;;;;;4992478;28;51588;-76
2021/06/30 07:46:46;;;;;;;;;11.00;8.50;;;;;;;;4991643;28;46278;-75
2021/06/30 07:49:11;;;;;;;;;11.75;7.00;;;;;;;;4993103;28;45629;-75
2021/06/30 07:51:36;;;;;;;;;7.00;7.00;;;;;;;;5014933;28;45431;-75
2021/06/30 07:54:02;;;;;;;;;10.67;6.33;;;;;;;;5009808;28;46261;-75
2021/06/30 07:56:34;;;;;;;;;7.00;6.00;;;;;;;;5003981;28;45827;-78
2021/06/30 07:59:06;;;;;;;;;10.00;6.00;;;;;;;;5015689;28;45605;-78
2021/06/30 08:01:32;;;;;;;;;8.75;8.75;;;;;;;;5007101;28;45586;-78
2021/06/30 08:03:57;;;;;;;;;9.25;8.50;;;;;;;;5007111;28;45578;-78
2021/06/30 08:06:22;;;;;;;;;9.00;9.00;;;;;;;;5014502;28;45586;-78
2021/06/30 08:08:47;;;;;;;;;10.25;8.00;;;;;;;;5005636;28;46360;-78
2021/06/30 08:11:13;;;;;;;;;8.25;7.25;;;;;;;;5008426;28;46064;-78
2021/06/30 08:13:38;;;;;;;;;13.33;10.67;;;;;;;;5012378;28;45627;-78
2021/06/30 08:16:03;;;;;;;;;11.50;8.25;;;;;;;;5004732;28;45695;-78
2021/06/30 08:18:29;;;;;;;;;15.25;11.75;;;;;;;;5013785;28;45558;-78
2021/06/30 08:20:54;;;;;;;;;12.00;10.33;;;;;;;;5011356;28;45529;-79
2021/06/30 08:23:19;;;;;;;;;9.00;9.00;;;;;;;;5004366;28;45918;-78
2021/06/30 08:25:45;;;;;;;;;9.50;8.25;;;;;;;;4998705;28;45493;-78
2021/06/30 08:28:11;;;;;;;;;9.50;8.25;;;;;;;;5010158;28;45506;-79
2021/06/30 08:30:36;;;;;;;;;11.00;8.00;;;;;;;;5015267;28;45598;-78
2021/06/30 08:33:02;;;;;;;;;10.50;8.25;;;;;;;;5011911;28;46913;-78
2021/06/30 08:35:27;;;;;;;;;11.75;10.00;;;;;;;;5010341;28;45641;-80
2021/06/30 08:37:54;;;;;;;;;12.25;10.50;;;;;;;;5015070;28;46137;-78
2021/06/30 08:40:20;;;;;;;;;11.50;9.00;;;;;;;;5012119;28;45689;-78
2021/06/30 08:42:45;;;;;;;;;11.00;10.25;;;;;;;;4997952;28;47389;-78
2021/06/30 08:45:11;;;;;;;;;12.50;10.00;;;;;;;;5012485;28;45543;-79
2021/06/30 08:47:38;;;;;;;;;12.25;9.75;;;;;;;;5008960;28;48326;-79
2021/06/30 08:50:05;;;;;;;;;12.50;10.25;;;;;;;;5015757;28;45356;-78
2021/06/30 08:52:31;;;;;;;;;13.25;13.00;;;;;;;;5012840;28;46045;-78
2021/06/30 08:54:58;;;;;;;;;12.00;11.00;;;;;;;;5007028;28;45931;-78
2021/06/30 08:57:24;;;;;;;;;16.50;12.00;;;;;;;;5007444;28;45574;-78
2021/06/30 08:59:49;;;;;;;;;12.25;9.25;;;;;;;;5005891;28;48777;-78
2021/06/30 09:02:15;;;;;;;;;14.00;10.00;;;;;;;;5020095;28;46147;-78
2021/06/30 09:04:42;;;;;;;;;11.00;10.50;;;;;;;;5008734;28;45608;-78
2021/06/30 09:07:07;;;;;;;;;13.00;9.50;;;;;;;;5013604;28;45521;-78
2021/06/30 09:09:40;;;;;;;;;14.00;12.00;;;;;;;;5010302;28;45509;-78
2021/06/30 09:12:06;;;;;;;;;10.75;9.50;;;;;;;;5008903;28;45638;-78
2021/06/30 09:14:40;;;;;;;;;13.00;11.00;;;;;;;;5014349;28;45502;-78
2021/06/30 09:17:23;;;;;;;;;14.00;11.00;;;;;;;;5008602;28;45669;-78
2021/06/30 09:19:55;;;;;;;;;11.25;9.00;;;;;;;;5010508;28;45604;-78
2021/06/30 09:22:26;;;;;;;;;12.75;12.75;;;;;;;;5009438;28;48436;-78
2021/06/30 09:24:51;;;;;;;;;14.00;11.00;;;;;;;;5012586;28;45637;-78
2021/06/30 09:27:18;;;;;;;;;13.00;12.00;;;;;;;;5016674;28;45576;-79
2021/06/30 09:29:43;;;;;;;;;12.25;12.25;;;;;;;;5006240;28;45467;-78
2021/06/30 09:32:10;;;;;;;;;13.00;9.75;;;;;;;;5013417;28;46477;-78
2021/06/30 09:34:36;;;;;;;;;13.00;9.25;;;;;;;;5010623;28;45582;-78
2021/06/30 09:37:04;;;;;;;;;11.75;9.00;;;;;;;;5006275;28;45830;-78
2021/06/30 09:39:32;;;;;;;;;12.75;11.00;;;;;;;;5012366;28;46559;-78
2021/06/30 09:42:03;;;;;;;;;11.50;9.75;;;;;;;;5003595;28;48215;-78
2021/06/30 09:44:30;;;;;;;;;10.50;10.50;;;;;;;;5008909;28;45589;-78
2021/06/30 09:46:56;;;;;;;;;11.25;10.75;;;;;;;;5009180;28;45583;-78
2021/06/30 09:49:21;;;;;;;;;13.50;11.00;;;;;;;;5010373;28;46318;-78
2021/06/30 09:52:01;;;;;;;;;11.25;9.50;;;;;;;;5013319;28;47197;-78
2021/06/30 09:54:29;;;;;;;;;11.50;10.00;;;;;;;;5006928;28;45488;-78
2021/06/30 09:57:04;;;;;;;;;15.75;13.75;;;;;;;;5012908;28;45564;-76
2021/06/30 09:59:33;;;;;;;;;11.50;9.25;;;;;;;;5007552;28;45630;-77
2021/06/30 10:01:58;;;;;;;;;11.25;9.50;;;;;;;;5030466;28;56838;-76
2021/06/30 10:04:25;;;;;;;;;12.33;10.67;;;;;;;;5006633;28;45589;-76
2021/06/30 10:06:54;;;;;;;;;12.75;11.25;;;;;;;;5013477;28;45459;-76
2021/06/30 10:09:19;;;;;;;;;11.25;11.00;;;;;;;;5007724;28;45778;-77
2021/06/30 10:11:54;;;;;;;;;14.50;9.25;;;;;;;;5010178;28;48535;-77
2021/06/30 10:14:19;;;;;;;;;12.75;11.00;;;;;;;;5015712;28;45514;-76
2021/06/30 10:16:45;;;;;;;;;10.50;9.50;;;;;;;;5006936;28;45615;-76
2021/06/30 10:21:46;;;;;;;;;10.25;8.75;;;;;;;;5710835;22;45878;-76
2021/06/30 10:24:13;;;;;;;;;12.00;11.75;;;;;;;;5008628;28;46495;-76
2021/06/30 10:26:40;;;;;;;;;14.25;11.25;;;;;;;;5037236;28;45684;-77
2021/06/30 10:31:42;;;;;;;;;9.75;9.75;;;;;;;;5707600;22;46334;-76
2021/06/30 10:34:11;;;;;;;;;13.00;12.00;;;;;;;;5024922;28;45562;-76
2021/06/30 10:36:45;;;;;;;;;13.00;11.25;;;;;;;;5012829;28;45407;-76
2021/06/30 10:39:11;;;;;;;;;10.75;10.75;;;;;;;;5021574;28;45592;-76
2021/06/30 10:41:41;;;;;;;;;13.25;11.00;;;;;;;;5012598;28;46699;-77
2021/06/30 10:44:06;;;;;;;;;14.75;11.00;;;;;;;;5010377;28;45867;-76
2021/06/30 10:46:32;;;;;;;;;11.25;10.00;;;;;;;;5005505;28;45894;-77
2021/06/30 10:49:20;;;;;;;;;10.50;10.25;;;;;;;;5014508;28;45729;-77
2021/06/30 10:51:47;;;;;;;;;12.50;10.25;;;;;;;;5006120;28;45771;-76
2021/06/30 10:54:31;;;;;;;;;11.25;9.00;;;;;;;;5014270;28;46318;-76
2021/06/30 10:57:18;;;;;;;;;11.25;11.25;;;;;;;;5007909;28;45650;-78
2021/06/30 11:00:00;;;;;;;;;9.75;9.75;;;;;;;;5014867;28;45553;-79
2021/06/30 11:02:27;;;;;;;;;10.25;9.00;;;;;;;;5030893;28;47164;-78
2021/06/30 11:04:52;;;;;;;;;11.25;9.50;;;;;;;;5020935;28;45571;-79
2021/06/30 11:07:30;;;;;;;;;10.25;10.00;;;;;;;;5018009;28;45561;-79
2021/06/30 11:09:55;;;;;;;;;10.25;9.50;;;;;;;;5015097;28;45499;-79
2021/06/30 11:12:20;;;;;;;;;11.25;9.25;;;;;;;;5010448;28;47406;-79
2021/06/30 11:14:46;;;;;;;;;12.50;10.25;;;;;;;;5006728;28;45547;-79
2021/06/30 11:17:11;;;;;;;;;10.25;9.00;;;;;;;;5016528;28;45669;-81
2021/06/30 11:19:37;;;;;;;;;14.00;11.00;;;;;;;;5023296;28;46280;-79
2021/06/30 11:22:05;;;;;;;;;11.50;9.75;;;;;;;;5010484;28;46329;-79
2021/06/30 11:24:33;;;;;;;;;10.00;10.00;;;;;;;;5016334;28;45579;-79
2021/06/30 11:26:58;;;;;;;;;10.75;10.75;;;;;;;;5007645;28;45525;-79
2021/06/30 11:29:47;;;;;;;;;13.25;10.75;;;;;;;;5017247;28;45454;-79
2021/06/30 11:32:30;;;;;;;;;12.50;10.75;;;;;;;;5012850;28;46133;-79
2021/06/30 11:34:56;;;;;;;;;12.00;12.00;;;;;;;;5013371;28;45662;-79
2021/06/30 11:37:21;;;;;;;;;12.50;9.75;;;;;;;;5008974;28;45492;-79
2021/06/30 11:39:49;;;;;;;;;12.33;11.00;;;;;;;;5016145;28;45529;-80
2021/06/30 11:42:28;;;;;;;;;11.75;10.00;;;;;;;;5017997;28;47347;-79
2021/06/30 11:44:54;;;;;;;;;10.50;10.25;;;;;;;;5012788;28;45391;-79
2021/06/30 11:47:19;;;;;;;;;13.00;9.00;;;;;;;;5014931;28;45399;-79
2021/06/30 11:49:44;;;;;;;;;13.75;12.00;;;;;;;;5012586;28;45439;-79
2021/06/30 11:52:13;;;;;;;;;12.00;12.00;;;;;;;;5010062;28;46252;-79
2021/06/30 11:54:38;;;;;;;;;12.00;11.00;;;;;;;;5008862;28;45619;-79
2021/06/30 11:57:07;;;;;;;;;11.75;11.25;;;;;;;;5005411;28;45530;-77
2021/06/30 11:59:36;;;;;;;;;11.25;10.75;;;;;;;;5017162;28;46080;-77
2021/06/30 12:02:01;;;;;;;;;11.00;8.50;;;;;;;;5011870;28;46499;-77
2021/06/30 12:04:27;;;;;;;;;12.75;11.75;;;;;;;;5015115;28;45972;-77
2021/06/30 12:06:54;;;;;;;;;12.00;10.00;;;;;;;;5021459;28;45561;-77
2021/06/30 12:09:30;;;;;;;;;13.00;11.25;;;;;;;;5017005;28;45520;-77
2021/06/30 12:12:02;;;;;;;;;12.25;10.00;;;;;;;;5006034;28;51762;-77
2021/06/30 12:14:29;;;;;;;;;12.50;12.50;;;;;;;;5012750;28;45531;-77
2021/06/30 12:16:54;;;;;;;;;14.75;9.75;;;;;;;;5005995;28;45448;-77
2021/06/30 12:19:38;;;;;;;;;9.67;9.33;;;;;;;;5004616;28;45482;-76
2021/06/30 12:22:15;;;;;;;;;9.50;9.00;;;;;;;;5004149;28;45691;-77
2021/06/30 12:24:41;;;;;;;;;8.50;8.50;;;;;;;;5006081;28;45531;-77
2021/06/30 12:27:07;;;;;;;;;11.75;9.50;;;;;;;;5013180;28;45433;-76
2021/06/30 12:29:34;;;;;;;;;13.75;11.50;;;;;;;;5004022;28;45514;-78
2021/06/30 12:32:01;;;;;;;;;11.75;9.75;;;;;;;;5006913;28;47197;-77
2021/06/30 12:34:27;;;;;;;;;11.75;9.50;;;;;;;;5009052;28;46521;-77
2021/06/30 12:36:52;;;;;;;;;12.75;11.25;;;;;;;;5013079;28;45517;-76
2021/06/30 12:39:17;;;;;;;;;12.00;10.00;;;;;;;;5020368;28;45545;-77
2021/06/30 12:41:53;;;;;;;;;13.00;11.75;;;;;;;;5002574;28;52900;-77
2021/06/30 12:44:18;;;;;;;;;9.00;8.50;;;;;;;;5013425;28;45662;-77
2021/06/30 12:46:44;;;;;;;;;9.00;8.75;;;;;;;;5015809;28;45876;-77
2021/06/30 12:49:16;;;;;;;;;14.75;11.50;;;;;;;;5003702;28;48574;-77
2021/06/30 12:51:44;;;;;;;;;15.50;14.00;;;;;;;;5021947;22;45679;-77
2021/06/30 12:54:09;;;;;;;;;15.00;11.00;;;;;;;;5010976;28;45617;-76
2021/06/30 12:56:42;;;;;;;;;12.75;11.00;;;;;;;;5010390;28;46018;-77
2021/06/30 12:59:14;;;;;;;;;11.75;11.00;;;;;;;;5023887;28;45931;-83
2021/06/30 13:01:40;;;;;;;;;14.00;11.25;;;;;;;;5010434;28;46416;-81
2021/06/30 13:04:07;;;;;;;;;16.25;12.00;;;;;;;;5014680;28;45649;-80
2021/06/30 13:06:38;;;;;;;;;11.75;10.00;;;;;;;;5076696;22;45529;-79
2021/06/30 13:09:14;;;;;;;;;13.00;9.00;;;;;;;;5097968;22;45478;-78
2021/06/30 13:11:39;;;;;;;;;10.25;9.25;;;;;;;;5011710;28;46158;-78
2021/06/30 13:14:16;;;;;;;;;12.50;11.50;;;;;;;;5022358;28;45522;-80
2021/06/30 13:17:08;;;;;;;;;;;;;;;;;;;;;
2021/06/30 13:22:18;;;;;;;;;12.50;10.75;;;;;;;;5974857;22;47231;-80
2021/06/30 13:24:47;;;;;;;;;13.75;11.75;;;;;;;;5013991;28;45353;-79
2021/06/30 13:35:41;;;;;;;;;10.00;10.00;;;;;;;;5029247;28;45493;-80
2021/06/30 13:38:19;;;;;;;;;10.00;9.50;;;;;;;;5011220;28;45560;-80
2021/06/30 13:40:46;;;;;;;;;13.00;11.50;;;;;;;;5022136;28;45513;-80
2021/06/30 13:43:15;;;;;;;;;9.75;9.75;;;;;;;;5008688;28;46303;-79
2021/06/30 13:45:53;;;;;;;;;12.50;11.00;;;;;;;;5024840;28;46624;-81
2021/06/30 13:48:22;;;;;;;;;12.00;9.25;;;;;;;;5008290;28;45582;-79
2021/06/30 13:50:49;;;;;;;;;11.25;11.25;;;;;;;;5017032;28;55012;-80
2021/06/30 13:53:15;;;;;;;;;11.75;10.00;;;;;;;;5012658;28;47286;-79
2021/06/30 13:55:43;;;;;;;;;11.50;10.25;;;;;;;;5016828;28;45801;-80
2021/06/30 13:58:09;;;;;;;;;11.00;10.25;;;;;;;;5248615;22;45746;-79
2021/06/30 14:00:34;;;;;;;;;10.75;10.00;;;;;;;;5035138;28;45566;-79
2021/06/30 14:03:00;;;;;;;;;10.75;9.00;;;;;;;;5027712;28;45545;-77
2021/06/30 14:13:10;;;;;;;;;8.75;8.00;;;;;;;;5028961;22;45666;-80
2021/06/30 14:15:37;;;;;;;;;11.50;8.75;;;;;;;;5001057;28;45476;-79
2021/06/30 14:18:05;;;;;;;;;9.50;8.25;;;;;;;;5055299;22;45552;-80
2021/06/30 14:25:41;;;;;;;;;9.75;9.00;;;;;;;;5408607;22;45806;-95
2021/06/30 14:28:07;;;;;;;;;11.25;10.00;;;;;;;;5027259;28;45613;-95
2021/06/30 14:30:33;;;;;;;;;11.00;8.25;;;;;;;;5021978;28;45439;-93
2021/06/30 14:32:58;;;;;;;;;11.25;9.50;;;;;;;;5024103;28;45557;-92
2021/06/30 14:35:24;;;;;;;;;11.25;9.25;;;;;;;;5022027;28;45545;-92
2021/06/30 14:37:49;;;;;;;;;9.00;8.25;;;;;;;;5018555;28;45410;-91
2021/06/30 14:40:16;;;;;;;;;11.00;9.00;;;;;;;;5050502;22;45501;-91
2021/06/30 14:42:42;;;;;;;;;9.00;9.00;;;;;;;;5018487;28;45531;-91
2021/06/30 14:45:07;;;;;;;;;12.00;11.50;;;;;;;;5018193;28;45534;-91
2021/06/30 14:47:33;;;;;;;;;8.00;7.75;;;;;;;;5027263;28;45515;-90
2021/06/30 14:49:58;;;;;;;;;12.00;9.00;;;;;;;;5023937;28;49967;-92
2021/06/30 14:52:24;;;;;;;;;9.25;8.75;;;;;;;;5130280;22;45787;-90
2021/06/30 14:54:49;;;;;;;;;13.00;10.00;;;;;;;;5112380;22;46031;-80
2021/06/30 14:57:15;;;;;;;;;9.33;9.00;;;;;;;;5067930;27;45468;-80
2021/06/30 14:59:41;;;;;;;;;9.75;9.75;;;;;;;;5071607;27;45781;-81
2021/06/30 15:02:06;;;;;;;;;10.25;10.25;;;;;;;;5073607;27;47482;-80
2021/06/30 15:04:32;;;;;;;;;9.75;9.00;;;;;;;;5073820;27;47667;-78